Time;durP1;ratioP1;P1;durP2;ratioP2;P2;SDS_P1;SDS_P2;PMS_P1;PMS_P2;Temp;Humidity;BMP_temperature;BMP_pressure;BME280_temperature;BME280_humidity;BME280_pressure;Samples;Min_cycle;Max_cycle;Signal;HPM_P1;HPM_P2
2022/11/13 00:01:07;;;;;;;;;;;19.60;72.00;;;;;;4561053;31;20051;-68
2022/11/13 00:03:33;;;;;;;;;;;19.60;72.10;;;;;;4563326;31;20024;-68
2022/11/13 00:05:59;;;;;;;;;;;19.50;72.00;;;;;;4561325;31;20016;-68
2022/11/13 00:08:25;;;;;;;;;;;19.50;72.00;;;;;;4563289;31;20043;-68
2022/11/13 00:10:51;;;;;;;;;;;19.50;72.00;;;;;;4518630;31;20034;-68
2022/11/13 00:13:16;;;;;;;;;;;19.50;72.00;;;;;;4540716;31;20500;-68
2022/11/13 00:15:42;;;;;;;;;;;19.50;72.10;;;;;;4520870;31;20079;-68
2022/11/13 00:18:08;;;;;;;;;;;19.50;72.00;;;;;;4528357;31;20027;-68
2022/11/13 00:20:34;;;;;;;;;;;19.50;72.00;;;;;;4548446;31;20036;-68
2022/11/13 00:23:00;;;;;;;;;;;19.40;72.00;;;;;;4561043;31;20035;-68
2022/11/13 00:25:25;;;;;;;;;;;19.50;72.10;;;;;;4548441;31;20030;-68
2022/11/13 00:27:51;;;;;;;;;;;19.40;72.00;;;;;;4517804;31;20090;-68
2022/11/13 00:30:17;;;;;;;;;;;19.40;72.00;;;;;;4540841;31;20030;-68
2022/11/13 00:32:42;;;;;;;;;;;19.40;72.10;;;;;;4548169;31;19983;-68
2022/11/13 00:35:09;;;;;;;;;;;19.40;72.10;;;;;;4560774;31;20023;-68
2022/11/13 00:37:35;;;;;;;;;;;19.40;72.10;;;;;;4548285;31;20034;-68
2022/11/13 00:40:00;;;;;;;;;;;19.40;72.10;;;;;;4560718;31;20089;-68
2022/11/13 00:42:26;;;;;;;;;;;19.30;72.10;;;;;;4548335;31;20028;-68
2022/11/13 00:44:51;;;;;;;;;;;19.30;72.00;;;;;;4561233;31;20085;-68
2022/11/13 00:47:17;;;;;;;;;;;19.30;72.10;;;;;;4562077;31;20046;-68
2022/11/13 00:49:43;;;;;;;;;;;19.30;72.00;;;;;;4562494;31;20087;-68
2022/11/13 00:52:08;;;;;;;;;;;19.30;72.10;;;;;;4560543;31;20028;-68
2022/11/13 00:54:34;;;;;;;;;;;19.30;72.10;;;;;;4562414;31;20138;-68
2022/11/13 00:57:00;;;;;;;;;;;19.30;72.10;;;;;;4560292;31;20088;-68
2022/11/13 00:59:25;;;;;;;;;;;19.30;72.20;;;;;;4534793;31;20016;-68
2022/11/13 01:01:51;;;;;;;;;;;19.20;72.10;;;;;;4560701;31;20038;-68
2022/11/13 01:04:17;;;;;;;;;;;19.20;72.10;;;;;;4561987;31;20104;-68
2022/11/13 01:06:43;;;;;;;;;;;19.20;72.10;;;;;;4547248;31;19982;-68
2022/11/13 01:09:09;;;;;;;;;;;19.20;72.20;;;;;;4545938;31;20032;-68
2022/11/13 01:11:34;;;;;;;;;;;19.20;72.10;;;;;;4538416;31;20024;-68
2022/11/13 01:14:00;;;;;;;;;;;19.20;72.10;;;;;;4547526;31;20572;-68
2022/11/13 01:16:26;;;;;;;;;;;19.20;72.10;;;;;;4547550;31;20028;-68
2022/11/13 01:18:53;;;;;;;;;;;19.20;72.10;;;;;;4535481;31;20039;-68
2022/11/13 01:21:19;;;;;;;;;;;19.20;72.10;;;;;;4539916;31;20072;-68
2022/11/13 01:23:45;;;;;;;;;;;19.20;72.20;;;;;;4543771;31;19992;-68
2022/11/13 01:26:12;;;;;;;;;;;19.10;72.20;;;;;;4534061;31;20505;-68
2022/11/13 01:28:39;;;;;;;;;;;19.10;72.20;;;;;;4551987;31;20169;-68
2022/11/13 01:31:10;;;;;;;;;;;19.10;72.20;;;;;;4545654;31;20443;-68
2022/11/13 01:33:36;;;;;;;;;;;19.10;72.10;;;;;;4561992;31;20042;-68
2022/11/13 01:36:04;;;;;;;;;;;19.10;72.10;;;;;;4545797;31;20032;-68
2022/11/13 01:38:30;;;;;;;;;;;19.10;72.20;;;;;;4562023;31;20039;-68
2022/11/13 01:40:56;;;;;;;;;;;19.10;72.30;;;;;;4561907;31;19988;-68
2022/11/13 01:43:29;;;;;;;;;;;19.10;72.20;;;;;;4545813;31;20004;-68
2022/11/13 01:45:58;;;;;;;;;;;19.10;72.20;;;;;;4547750;31;20042;-68
2022/11/13 01:48:36;;;;;;;;;;;19.10;72.20;;;;;;4544774;31;20157;-68
2022/11/13 01:51:07;;;;;;;;;;;19.00;72.20;;;;;;4562355;31;20024;-68
2022/11/13 01:53:33;;;;;;;;;;;19.00;72.20;;;;;;4560889;31;20153;-68
2022/11/13 01:55:58;;;;;;;;;;;19.00;72.20;;;;;;4546274;31;20020;-68
2022/11/13 01:58:24;;;;;;;;;;;19.00;72.20;;;;;;4551278;31;19975;-68
2022/11/13 02:00:50;;;;;;;;;;;19.00;72.20;;;;;;4544742;31;20401;-68
2022/11/13 02:03:15;;;;;;;;;;;19.00;72.20;;;;;;4562254;31;20027;-68
2022/11/13 02:05:41;;;;;;;;;;;19.00;72.20;;;;;;4545144;31;20122;-68
2022/11/13 02:08:07;;;;;;;;;;;19.00;72.20;;;;;;4547578;31;20055;-68
2022/11/13 02:10:33;;;;;;;;;;;18.90;72.20;;;;;;4534464;31;20162;-68
2022/11/13 02:12:58;;;;;;;;;;;18.90;72.20;;;;;;4527688;31;20091;-68
2022/11/13 02:15:25;;;;;;;;;;;18.90;72.20;;;;;;4518012;31;20094;-68
2022/11/13 02:17:55;;;;;;;;;;;19.00;72.20;;;;;;4562007;31;20031;-68
2022/11/13 02:20:33;;;;;;;;;;;18.90;72.20;;;;;;4550403;31;20047;-68
2022/11/13 02:23:18;;;;;;;;;;;18.90;72.20;;;;;;4562511;31;20026;-68
2022/11/13 02:25:46;;;;;;;;;;;18.90;72.20;;;;;;4564346;31;20028;-68
2022/11/13 02:28:11;;;;;;;;;;;18.90;72.20;;;;;;4564583;31;20040;-68
2022/11/13 02:30:37;;;;;;;;;;;18.90;72.20;;;;;;4525869;31;20036;-68
2022/11/13 02:33:18;;;;;;;;;;;18.90;72.30;;;;;;4562675;31;20544;-68
2022/11/13 02:35:44;;;;;;;;;;;18.90;72.20;;;;;;4562601;31;20154;-68
2022/11/13 02:38:10;;;;;;;;;;;18.90;72.20;;;;;;4547250;31;20058;-66
2022/11/13 02:40:37;;;;;;;;;;;18.90;72.30;;;;;;4555084;31;20372;-66
2022/11/13 02:43:03;;;;;;;;;;;18.90;72.20;;;;;;4549059;31;20046;-66
2022/11/13 02:45:29;;;;;;;;;;;18.80;72.10;;;;;;4530398;31;19973;-65
2022/11/13 02:47:55;;;;;;;;;;;18.80;72.10;;;;;;4542774;31;20027;-66
2022/11/13 02:50:20;;;;;;;;;;;18.80;72.10;;;;;;4563930;31;20105;-66
2022/11/13 02:52:46;;;;;;;;;;;18.80;72.10;;;;;;4561470;31;20081;-69
2022/11/13 02:55:12;;;;;;;;;;;18.80;72.10;;;;;;4563846;31;20032;-68
2022/11/13 02:57:38;;;;;;;;;;;18.80;73.00;;;;;;4547572;31;20055;-68
2022/11/13 03:00:04;;;;;;;;;;;18.80;72.10;;;;;;4548396;31;20012;-68
2022/11/13 03:02:29;;;;;;;;;;;18.80;72.10;;;;;;4535810;31;19984;-68
2022/11/13 03:04:55;;;;;;;;;;;18.80;72.10;;;;;;4546934;31;20128;-69
2022/11/13 03:07:21;;;;;;;;;;;18.80;72.00;;;;;;4563750;31;20020;-68
2022/11/13 03:09:46;;;;;;;;;;;18.80;72.10;;;;;;4561562;31;20156;-69
2022/11/13 03:12:12;;;;;;;;;;;18.80;72.00;;;;;;4547666;31;20034;-69
2022/11/13 03:14:38;;;;;;;;;;;18.80;72.00;;;;;;4547098;31;20039;-68
2022/11/13 03:17:03;;;;;;;;;;;18.80;72.00;;;;;;4545602;31;20081;-68
2022/11/13 03:19:29;;;;;;;;;;;18.80;72.00;;;;;;4532935;31;20306;-67
2022/11/13 03:21:55;;;;;;;;;;;18.80;72.10;;;;;;4560395;31;20020;-68
2022/11/13 03:24:20;;;;;;;;;;;18.80;72.00;;;;;;4535813;31;20038;-68
2022/11/13 03:26:46;;;;;;;;;;;18.80;72.00;;;;;;4561752;31;20248;-68
2022/11/13 03:29:12;;;;;;;;;;;18.70;72.10;;;;;;4548817;31;20023;-68
2022/11/13 03:31:38;;;;;;;;;;;18.70;72.10;;;;;;4531259;31;20038;-68
2022/11/13 03:34:04;;;;;;;;;;;18.70;72.10;;;;;;4532963;31;20024;-68
2022/11/13 03:36:29;;;;;;;;;;;18.70;72.10;;;;;;4561166;31;19964;-67
2022/11/13 03:38:56;;;;;;;;;;;18.70;72.10;;;;;;4526542;31;20046;-68
2022/11/13 03:41:22;;;;;;;;;;;18.70;72.10;;;;;;4545832;31;20024;-68
2022/11/13 03:43:48;;;;;;;;;;;18.70;72.10;;;;;;4546978;31;20153;-68
2022/11/13 03:46:13;;;;;;;;;;;18.70;72.10;;;;;;4538030;31;20016;-68
2022/11/13 03:48:39;;;;;;;;;;;18.70;72.00;;;;;;4517357;31;20038;-68
2022/11/13 03:51:05;;;;;;;;;;;18.70;72.10;;;;;;4556998;31;20137;-69
2022/11/13 03:53:31;;;;;;;;;;;18.70;72.10;;;;;;4562613;31;20038;-68
2022/11/13 03:55:57;;;;;;;;;;;18.60;72.00;;;;;;4562210;31;20032;-68
2022/11/13 03:58:22;;;;;;;;;;;18.60;72.00;;;;;;4547301;31;20048;-67
2022/11/13 04:00:49;;;;;;;;;;;18.60;72.00;;;;;;4536998;31;20094;-68
2022/11/13 04:03:14;;;;;;;;;;;18.60;72.00;;;;;;4563500;31;20513;-68
2022/11/13 04:05:41;;;;;;;;;;;18.60;72.00;;;;;;4543742;31;20223;-68
2022/11/13 04:08:06;;;;;;;;;;;18.70;72.00;;;;;;4532728;31;20027;-68
2022/11/13 04:10:32;;;;;;;;;;;18.60;71.90;;;;;;4545781;31;20136;-67
2022/11/13 04:12:58;;;;;;;;;;;18.60;72.00;;;;;;4539719;31;20138;-68
2022/11/13 04:15:24;;;;;;;;;;;18.60;71.90;;;;;;4545365;31;19993;-68
2022/11/13 04:17:49;;;;;;;;;;;18.60;71.90;;;;;;4561237;31;20075;-68
2022/11/13 04:20:15;;;;;;;;;;;18.60;71.90;;;;;;4524147;31;20035;-68
2022/11/13 04:22:41;;;;;;;;;;;18.60;72.00;;;;;;4531881;31;20058;-68
2022/11/13 04:25:07;;;;;;;;;;;18.60;72.00;;;;;;4562970;31;20031;-68
2022/11/13 04:27:33;;;;;;;;;;;18.60;72.00;;;;;;4561273;31;20038;-67
2022/11/13 04:29:59;;;;;;;;;;;18.60;72.00;;;;;;4547869;31;20020;-68
2022/11/13 04:32:25;;;;;;;;;;;18.60;71.90;;;;;;4552952;31;19987;-67
2022/11/13 04:34:51;;;;;;;;;;;18.60;71.90;;;;;;4559432;31;20030;-68
2022/11/13 04:37:16;;;;;;;;;;;18.50;71.90;;;;;;4562999;31;20047;-68
2022/11/13 04:39:43;;;;;;;;;;;18.50;72.00;;;;;;4560492;31;20042;-68
2022/11/13 04:44:53;;;;;;;;;;;18.50;71.90;;;;;;4559176;31;20131;-68
2022/11/13 04:47:19;;;;;;;;;;;18.50;71.90;;;;;;4561689;31;20020;-68
2022/11/13 04:49:45;;;;;;;;;;;18.50;71.90;;;;;;4547670;31;19968;-68
2022/11/13 04:52:11;;;;;;;;;;;18.50;71.90;;;;;;4535332;31;20063;-67
2022/11/13 04:54:37;;;;;;;;;;;18.50;71.90;;;;;;4548055;31;20034;-68
2022/11/13 04:57:03;;;;;;;;;;;18.50;71.90;;;;;;4541588;31;20027;-67
2022/11/13 04:59:29;;;;;;;;;;;18.50;71.90;;;;;;4540273;31;20104;-68
2022/11/13 05:01:55;;;;;;;;;;;18.50;71.90;;;;;;4560607;31;20486;-67
2022/11/13 05:04:20;;;;;;;;;;;18.50;71.80;;;;;;4545843;31;20025;-68
2022/11/13 05:06:46;;;;;;;;;;;18.40;71.90;;;;;;4546692;31;19972;-69
2022/11/13 05:09:12;;;;;;;;;;;18.50;71.90;;;;;;4559939;31;20086;-68
2022/11/13 05:11:38;;;;;;;;;;;18.40;71.90;;;;;;4545398;31;20028;-68
2022/11/13 05:14:04;;;;;;;;;;;18.40;71.90;;;;;;4531153;31;20150;-68
2022/11/13 05:16:30;;;;;;;;;;;18.50;71.90;;;;;;4562048;31;20147;-68
2022/11/13 05:18:58;;;;;;;;;;;18.40;71.90;;;;;;4560110;31;20023;-67
2022/11/13 05:21:24;;;;;;;;;;;18.40;71.90;;;;;;4546612;31;20112;-68
2022/11/13 05:23:50;;;;;;;;;;;18.40;71.90;;;;;;4561734;31;19987;-68
2022/11/13 05:26:17;;;;;;;;;;;18.40;71.80;;;;;;4559458;31;20027;-68
2022/11/13 05:28:42;;;;;;;;;;;18.40;71.90;;;;;;4560098;31;20067;-68
2022/11/13 05:31:09;;;;;;;;;;;18.40;71.90;;;;;;4544682;31;20124;-69
2022/11/13 05:33:35;;;;;;;;;;;18.40;71.90;;;;;;4547363;31;20381;-69
2022/11/13 05:36:05;;;;;;;;;;;18.40;71.90;;;;;;4560074;31;20027;-67
2022/11/13 05:38:31;;;;;;;;;;;18.30;71.90;;;;;;4547242;31;20039;-68
2022/11/13 05:41:04;;;;;;;;;;;18.30;71.90;;;;;;4547404;31;19988;-67
2022/11/13 05:43:30;;;;;;;;;;;18.30;71.90;;;;;;4559841;31;20059;-68
2022/11/13 05:46:03;;;;;;;;;;;18.40;71.90;;;;;;4547524;31;20369;-68
2022/11/13 05:48:29;;;;;;;;;;;18.30;71.90;;;;;;4559787;31;20138;-68
2022/11/13 05:50:59;;;;;;;;;;;18.30;71.90;;;;;;4562349;31;20037;-68
2022/11/13 05:53:25;;;;;;;;;;;18.30;71.90;;;;;;4563908;31;20067;-68
2022/11/13 05:55:51;;;;;;;;;;;18.30;71.90;;;;;;4533428;31;20026;-68
2022/11/13 05:58:16;;;;;;;;;;;18.30;72.00;;;;;;4560975;31;19976;-68
2022/11/13 06:00:42;;;;;;;;;;;18.30;72.00;;;;;;4563233;31;20038;-68
2022/11/13 06:03:08;;;;;;;;;;;18.30;72.00;;;;;;4550825;31;20578;-68
2022/11/13 06:05:34;;;;;;;;;;;18.20;72.00;;;;;;4562315;31;20175;-68
2022/11/13 06:08:00;;;;;;;;;;;18.30;72.00;;;;;;4565218;31;20170;-68
2022/11/13 06:10:25;;;;;;;;;;;18.30;72.00;;;;;;4563428;31;20070;-67
2022/11/13 06:12:53;;;;;;;;;;;18.30;71.90;;;;;;4564248;31;20032;-68
2022/11/13 06:15:18;;;;;;;;;;;18.20;71.90;;;;;;4564919;31;19976;-67
2022/11/13 06:17:45;;;;;;;;;;;18.30;71.90;;;;;;4562945;31;20038;-68
2022/11/13 06:20:10;;;;;;;;;;;18.30;72.00;;;;;;4565187;31;20024;-68
2022/11/13 06:22:36;;;;;;;;;;;18.20;71.90;;;;;;4547911;31;20108;-68
2022/11/13 06:25:02;;;;;;;;;;;18.20;71.90;;;;;;4564856;31;20138;-68
2022/11/13 06:27:28;;;;;;;;;;;18.20;71.80;;;;;;4548545;31;20016;-67
2022/11/13 06:29:53;;;;;;;;;;;18.20;71.80;;;;;;4552904;31;20063;-68
2022/11/13 06:32:19;;;;;;;;;;;18.20;71.90;;;;;;4549983;31;20485;-67
2022/11/13 06:34:45;;;;;;;;;;;18.20;71.80;;;;;;4523570;31;20034;-68
2022/11/13 06:37:10;;;;;;;;;;;18.20;71.80;;;;;;4542646;31;20059;-68
2022/11/13 06:39:36;;;;;;;;;;;18.20;71.80;;;;;;4544055;31;20034;-68
2022/11/13 06:42:03;;;;;;;;;;;18.20;71.80;;;;;;4564807;31;20027;-68
2022/11/13 06:44:28;;;;;;;;;;;18.20;71.80;;;;;;4562710;31;20015;-67
2022/11/13 06:46:54;;;;;;;;;;;18.20;71.80;;;;;;4564343;31;20028;-68
2022/11/13 06:49:20;;;;;;;;;;;18.20;71.80;;;;;;4564059;31;19987;-67
2022/11/13 06:51:46;;;;;;;;;;;18.20;71.80;;;;;;4548281;31;20028;-68
2022/11/13 06:54:11;;;;;;;;;;;18.10;71.70;;;;;;4550075;31;20401;-67
2022/11/13 06:56:42;;;;;;;;;;;18.10;71.70;;;;;;4546070;31;20150;-67
2022/11/13 06:59:08;;;;;;;;;;;18.10;71.80;;;;;;4554787;31;20028;-68
2022/11/13 07:01:34;;;;;;;;;;;18.10;71.70;;;;;;4562327;31;20430;-68
2022/11/13 07:03:59;;;;;;;;;;;18.10;71.80;;;;;;4548654;31;20074;-68
2022/11/13 07:06:25;;;;;;;;;;;18.10;71.70;;;;;;4539270;31;19965;-67
2022/11/13 07:08:52;;;;;;;;;;;18.10;71.70;;;;;;4546853;31;20032;-68
2022/11/13 07:11:19;;;;;;;;;;;18.10;71.70;;;;;;4564285;31;20038;-67
2022/11/13 07:13:45;;;;;;;;;;;18.10;71.70;;;;;;4561849;31;20840;-68
2022/11/13 07:16:15;;;;;;;;;;;18.10;71.80;;;;;;4550041;31;20046;-68
2022/11/13 07:18:41;;;;;;;;;;;18.00;71.70;;;;;;4550591;31;20102;-67
2022/11/13 07:21:08;;;;;;;;;;;18.10;71.80;;;;;;4530404;31;20031;-68
2022/11/13 07:23:35;;;;;;;;;;;18.10;71.80;;;;;;4557946;31;19994;-67
2022/11/13 07:26:02;;;;;;;;;;;18.10;71.70;;;;;;4562115;31;20158;-68
2022/11/13 07:28:28;;;;;;;;;;;18.10;71.70;;;;;;4549673;31;20070;-67
2022/11/13 07:30:56;;;;;;;;;;;18.00;71.70;;;;;;4550633;31;20177;-67
2022/11/13 07:33:21;;;;;;;;;;;18.00;71.70;;;;;;4538149;31;20078;-69
2022/11/13 07:35:47;;;;;;;;;;;18.00;71.80;;;;;;4562054;31;20149;-68
2022/11/13 07:38:13;;;;;;;;;;;18.00;71.20;;;;;;4563652;31;20141;-68
2022/11/13 07:40:39;;;;;;;;;;;18.00;71.50;;;;;;4527135;31;19985;-68
2022/11/13 07:43:05;;;;;;;;;;;18.00;71.30;;;;;;4520012;31;20058;-68
2022/11/13 07:45:31;;;;;;;;;;;18.00;71.60;;;;;;4547336;31;20339;-68
2022/11/13 07:48:00;;;;;;;;;;;18.00;71.70;;;;;;4546858;31;20032;-68
2022/11/13 07:50:27;;;;;;;;;;;18.00;72.00;;;;;;4552799;31;20023;-68
2022/11/13 07:52:56;;;;;;;;;;;18.10;72.20;;;;;;4561482;31;20028;-68
2022/11/13 07:55:22;;;;;;;;;;;18.10;72.30;;;;;;4524939;31;20173;-68
2022/11/13 07:57:47;;;;;;;;;;;18.20;71.90;;;;;;4561683;31;21922;-66
2022/11/13 08:00:13;;;;;;;;;;;18.20;71.90;;;;;;4544394;31;20030;-67
2022/11/13 08:02:39;;;;;;;;;;;18.40;71.30;;;;;;4563171;31;20043;-67
2022/11/13 08:05:05;;;;;;;;;;;18.60;71.10;;;;;;4545944;31;20023;-68
2022/11/13 08:07:30;;;;;;;;;;;18.60;70.70;;;;;;4562910;31;20040;-69
2022/11/13 08:09:56;;;;;;;;;;;18.80;70.40;;;;;;4536576;31;20016;-68
2022/11/13 08:12:22;;;;;;;;;;;18.90;70.10;;;;;;4545858;31;20042;-69
2022/11/13 08:14:48;;;;;;;;;;;19.10;69.80;;;;;;4556082;31;20012;-68
2022/11/13 08:17:13;;;;;;;;;;;19.20;69.50;;;;;;4547329;31;20035;-68
2022/11/13 08:19:39;;;;;;;;;;;19.30;69.20;;;;;;4548689;31;19985;-67
2022/11/13 08:22:05;;;;;;;;;;;19.40;69.10;;;;;;4560717;31;20035;-68
2022/11/13 08:24:31;;;;;;;;;;;19.50;68.90;;;;;;4548584;31;20146;-68
2022/11/13 08:26:57;;;;;;;;;;;19.50;68.70;;;;;;4546075;31;20039;-68
2022/11/13 08:29:23;;;;;;;;;;;19.60;68.50;;;;;;4548499;31;20108;-68
2022/11/13 08:31:48;;;;;;;;;;;19.70;68.40;;;;;;4547053;31;20076;-68
2022/11/13 08:34:14;;;;;;;;;;;19.70;68.20;;;;;;4551375;31;20027;-68
2022/11/13 08:36:40;;;;;;;;;;;19.80;68.20;;;;;;4547624;31;19983;-68
2022/11/13 08:39:05;;;;;;;;;;;19.90;68.00;;;;;;4546309;31;20354;-68
2022/11/13 08:41:31;;;;;;;;;;;19.90;67.80;;;;;;4529762;31;20096;-70
2022/11/13 08:43:58;;;;;;;;;;;19.90;67.80;;;;;;4519790;31;20377;-70
2022/11/13 08:46:23;;;;;;;;;;;20.00;67.80;;;;;;4542703;31;20016;-69
2022/11/13 08:48:49;;;;;;;;;;;20.00;67.60;;;;;;4544572;31;20532;-69
2022/11/13 08:51:15;;;;;;;;;;;20.10;67.60;;;;;;4540661;31;20204;-70
2022/11/13 08:53:40;;;;;;;;;;;20.10;67.40;;;;;;4518406;31;20051;-69
2022/11/13 08:56:06;;;;;;;;;;;20.20;67.40;;;;;;4548194;31;20016;-69
2022/11/13 08:58:32;;;;;;;;;;;20.20;67.30;;;;;;4552552;31;20015;-69
2022/11/13 09:01:01;;;;;;;;;;;20.20;67.20;;;;;;4533937;31;20020;-68
2022/11/13 09:03:27;;;;;;;;;;;20.20;67.00;;;;;;4542840;31;20024;-68
2022/11/13 09:05:52;;;;;;;;;;;20.30;67.00;;;;;;4544774;31;20075;-65
2022/11/13 09:08:18;;;;;;;;;;;20.30;66.90;;;;;;4539815;31;20048;-69
2022/11/13 09:10:44;;;;;;;;;;;20.30;66.90;;;;;;4546971;31;20325;-68
2022/11/13 09:13:10;;;;;;;;;;;20.30;66.80;;;;;;4546077;31;20215;-69
2022/11/13 09:15:37;;;;;;;;;;;20.40;66.80;;;;;;4547723;31;20165;-68
2022/11/13 09:18:03;;;;;;;;;;;20.40;66.70;;;;;;4537482;31;20174;-68
2022/11/13 09:20:30;;;;;;;;;;;20.40;66.60;;;;;;4562386;31;20027;-68
2022/11/13 09:23:00;;;;;;;;;;;20.40;66.60;;;;;;4545515;31;20047;-69
2022/11/13 09:25:26;;;;;;;;;;;20.50;66.60;;;;;;4553035;31;20076;-69
2022/11/13 09:27:53;;;;;;;;;;;20.50;66.60;;;;;;4558831;31;20012;-68
2022/11/13 09:30:19;;;;;;;;;;;20.50;66.60;;;;;;4555393;31;20451;-69
2022/11/13 09:32:44;;;;;;;;;;;20.50;67.50;;;;;;4518639;31;20016;-69
2022/11/13 09:35:10;;;;;;;;;;;20.50;66.60;;;;;;4525992;31;20140;-70
2022/11/13 09:37:36;;;;;;;;;;;20.60;66.60;;;;;;4535156;31;20027;-70
2022/11/13 09:40:02;;;;;;;;;;;20.60;66.50;;;;;;4548147;31;20019;-70
2022/11/13 09:42:28;;;;;;;;;;;20.60;66.50;;;;;;4538622;31;20033;-70
2022/11/13 09:45:00;;;;;;;;;;;20.60;66.40;;;;;;4550220;31;20333;-70
2022/11/13 09:47:31;;;;;;;;;;;20.70;66.40;;;;;;4545160;31;20136;-70
2022/11/13 09:50:00;;;;;;;;;;;20.60;66.40;;;;;;4550495;31;20036;-70
2022/11/13 09:52:31;;;;;;;;;;;20.70;66.40;;;;;;4555539;31;20457;-69
2022/11/13 09:54:57;;;;;;;;;;;20.70;66.40;;;;;;4550561;31;20094;-70
2022/11/13 09:57:41;;;;;;;;;;;20.70;66.40;;;;;;4542415;31;20138;-68
2022/11/13 10:00:11;;;;;;;;;;;20.70;66.40;;;;;;4543994;31;20039;-69
2022/11/13 10:02:56;;;;;;;;;;;20.70;66.30;;;;;;4538692;31;20162;-70
2022/11/13 10:05:30;;;;;;;;;;;20.70;66.30;;;;;;4559628;31;20097;-70
2022/11/13 10:08:17;;;;;;;;;;;20.70;66.00;;;;;;4547618;31;20045;-70
2022/11/13 10:10:50;;;;;;;;;;;20.80;65.80;;;;;;4546333;31;19977;-70
2022/11/13 10:13:23;;;;;;;;;;;20.70;65.60;;;;;;4540659;31;20039;-69
2022/11/13 10:15:51;;;;;;;;;;;20.60;65.50;;;;;;4561559;31;20032;-70
2022/11/13 10:18:26;;;;;;;;;;;20.60;65.70;;;;;;4559798;31;20146;-71
2022/11/13 10:20:59;;;;;;;;;;;20.50;65.90;;;;;;4547253;31;20088;-70
2022/11/13 10:23:33;;;;;;;;;;;20.40;66.00;;;;;;4546372;31;19984;-70
2022/11/13 10:26:19;;;;;;;;;;;20.30;66.50;;;;;;4520673;31;20024;-69
2022/11/13 10:28:44;;;;;;;;;;;20.30;66.40;;;;;;4561566;31;20160;-70
2022/11/13 10:31:11;;;;;;;;;;;20.20;66.50;;;;;;4543462;31;20479;-70
2022/11/13 10:33:36;;;;;;;;;;;20.10;66.60;;;;;;4552214;31;20038;-69
2022/11/13 10:36:21;;;;;;;;;;;20.10;66.70;;;;;;4545792;31;20027;-69
2022/11/13 10:38:49;;;;;;;;;;;20.00;66.70;;;;;;4553335;31;20077;-69
2022/11/13 10:41:16;;;;;;;;;;;20.00;66.80;;;;;;4549423;31;20042;-69
2022/11/13 10:43:51;;;;;;;;;;;19.90;66.90;;;;;;4551729;31;20051;-69
2022/11/13 10:46:23;;;;;;;;;;;19.90;67.00;;;;;;4564706;31;20062;-69
2022/11/13 10:48:49;;;;;;;;;;;19.80;67.10;;;;;;4563251;31;20160;-69
2022/11/13 10:51:21;;;;;;;;;;;19.80;67.30;;;;;;4548589;31;20153;-70
2022/11/13 10:53:47;;;;;;;;;;;19.70;67.40;;;;;;4549088;31;19984;-70
2022/11/13 10:56:20;;;;;;;;;;;19.70;67.50;;;;;;4560618;31;20039;-70
2022/11/13 10:58:58;;;;;;;;;;;19.60;67.50;;;;;;4564216;31;20193;-69
2022/11/13 11:01:24;;;;;;;;;;;19.60;67.70;;;;;;4544931;31;20024;-69
2022/11/13 11:03:50;;;;;;;;;;;19.60;67.70;;;;;;4532142;31;20027;-69
2022/11/13 11:06:16;;;;;;;;;;;19.50;67.70;;;;;;4530761;31;20437;-69
2022/11/13 11:08:41;;;;;;;;;;;19.50;67.90;;;;;;4532369;31;20167;-69
2022/11/13 11:14:18;;;;;;;;;;;19.40;67.80;;;;;;4544417;31;20081;-69
2022/11/13 11:16:45;;;;;;;;;;;19.40;67.80;;;;;;4514035;31;20038;-69
2022/11/13 11:19:13;;;;;;;;;;;19.30;67.90;;;;;;4547096;31;20009;-68
2022/11/13 11:21:40;;;;;;;;;;;19.30;68.00;;;;;;4535930;31;20040;-69
2022/11/13 11:24:13;;;;;;;;;;;19.20;67.80;;;;;;4546265;31;20150;-69
2022/11/13 11:26:38;;;;;;;;;;;19.20;67.90;;;;;;4545100;31;20035;-69
2022/11/13 11:29:13;;;;;;;;;;;19.20;67.90;;;;;;4544061;31;20028;-69
2022/11/13 11:31:44;;;;;;;;;;;19.20;68.00;;;;;;4544473;31;20028;-69
2022/11/13 11:34:28;;;;;;;;;;;19.10;67.90;;;;;;4538381;31;20028;-69
2022/11/13 11:37:04;;;;;;;;;;;19.10;67.80;;;;;;4541366;31;20036;-68
2022/11/13 11:39:30;;;;;;;;;;;19.00;67.80;;;;;;4545219;31;20042;-68
2022/11/13 11:42:06;;;;;;;;;;;19.00;67.70;;;;;;4546589;31;20079;-69
2022/11/13 11:44:37;;;;;;;;;;;19.00;67.70;;;;;;4537574;31;20028;-68
2022/11/13 11:47:06;;;;;;;;;;;19.00;67.60;;;;;;4545505;31;20039;-69
2022/11/13 11:49:32;;;;;;;;;;;18.90;67.50;;;;;;4545751;31;19972;-68
2022/11/13 11:52:12;;;;;;;;;;;18.90;67.40;;;;;;4545132;31;20158;-67
2022/11/13 11:54:45;;;;;;;;;;;18.90;67.70;;;;;;4547416;31;20082;-67
2022/11/13 11:57:31;;;;;;;;;;;18.90;67.20;;;;;;4541976;31;20030;-68
2022/11/13 12:00:05;;;;;;;;;;;18.80;67.00;;;;;;4532589;31;20039;-68
2022/11/13 12:02:49;;;;;;;;;;;18.80;67.00;;;;;;4548966;31;19987;-67
2022/11/13 12:05:17;;;;;;;;;;;18.80;66.90;;;;;;4560949;31;20097;-68
2022/11/13 12:07:50;;;;;;;;;;;18.80;67.10;;;;;;4548868;31;20177;-69
2022/11/13 12:10:16;;;;;;;;;;;18.80;67.20;;;;;;4561796;31;20059;-68
2022/11/13 12:12:58;;;;;;;;;;;18.80;67.40;;;;;;4562630;31;20066;-68
2022/11/13 12:15:43;;;;;;;;;;;18.80;67.40;;;;;;4563271;31;20043;-68
2022/11/13 12:18:14;;;;;;;;;;;18.80;67.60;;;;;;4561030;31;20165;-68
2022/11/13 12:20:40;;;;;;;;;;;18.80;67.70;;;;;;4563022;31;20028;-68
2022/11/13 12:23:24;;;;;;;;;;;18.80;67.90;;;;;;4561550;31;20028;-68
2022/11/13 12:25:51;;;;;;;;;;;18.80;68.10;;;;;;4533497;31;20019;-69
2022/11/13 12:28:47;;;;;;;;;;;18.80;68.70;;;;;;4537650;31;20024;-68
2022/11/13 12:31:24;;;;;;;;;;;18.80;69.00;;;;;;4473975;31;20034;-68
2022/11/13 12:33:57;;;;;;;;;;;18.80;69.10;;;;;;4540067;31;20031;-68
2022/11/13 12:36:23;;;;;;;;;;;18.90;69.00;;;;;;4545925;31;20076;-68
2022/11/13 12:39:01;;;;;;;;;;;18.80;69.00;;;;;;4561049;31;20023;-68
2022/11/13 12:41:50;;;;;;;;;;;18.80;68.90;;;;;;4562797;31;20033;-69
2022/11/13 12:44:15;;;;;;;;;;;18.80;69.10;;;;;;4545930;31;20045;-68
2022/11/13 12:46:41;;;;;;;;;;;18.80;69.30;;;;;;4562133;31;20075;-69
2022/11/13 12:49:34;;;;;;;;;;;18.80;69.40;;;;;;4561741;31;19994;-68
2022/11/13 12:52:15;;;;;;;;;;;18.80;69.50;;;;;;4554792;31;20043;-68
2022/11/13 12:54:40;;;;;;;;;;;18.80;69.60;;;;;;4541803;31;20032;-68
2022/11/13 12:57:12;;;;;;;;;;;18.80;69.80;;;;;;4559730;31;20035;-68
2022/11/13 12:59:42;;;;;;;;;;;18.80;69.90;;;;;;4561601;31;20108;-70
2022/11/13 13:02:08;;;;;;;;;;;18.80;70.10;;;;;;4544653;31;19992;-68
2022/11/13 13:04:43;;;;;;;;;;;18.80;70.20;;;;;;4547876;31;20073;-68
2022/11/13 13:07:09;;;;;;;;;;;18.80;70.30;;;;;;4549831;31;20077;-68
2022/11/13 13:09:34;;;;;;;;;;;18.80;70.50;;;;;;4546866;31;20027;-69
2022/11/13 13:12:33;;;;;;;;;;;18.70;70.40;;;;;;4544482;31;20031;-69
2022/11/13 13:14:58;;;;;;;;;;;18.80;70.50;;;;;;4507193;31;20139;-69
2022/11/13 13:17:24;;;;;;;;;;;18.70;70.40;;;;;;4552635;31;20024;-69
2022/11/13 13:20:16;;;;;;;;;;;18.70;70.50;;;;;;4547981;31;20011;-69
2022/11/13 13:22:53;;;;;;;;;;;18.70;70.40;;;;;;4556167;31;20031;-68
2022/11/13 13:25:22;;;;;;;;;;;18.70;70.40;;;;;;4544329;31;20125;-69
2022/11/13 13:28:00;;;;;;;;;;;18.70;70.50;;;;;;4549934;31;19976;-68
2022/11/13 13:30:26;;;;;;;;;;;18.70;70.70;;;;;;4545283;31;20052;-69
2022/11/13 13:32:55;;;;;;;;;;;18.70;70.70;;;;;;4554799;31;20316;-68
2022/11/13 13:35:37;;;;;;;;;;;18.70;70.80;;;;;;4555364;31;20024;-69
2022/11/13 13:38:22;;;;;;;;;;;18.70;71.00;;;;;;4543609;31;20040;-67
2022/11/13 13:41:20;;;;;;;;;;;18.80;71.00;;;;;;4550894;31;19992;-67
2022/11/13 13:44:06;;;;;;;;;;;18.70;71.00;;;;;;4507088;31;20070;-68
2022/11/13 13:46:32;;;;;;;;;;;18.70;71.10;;;;;;4550290;31;20058;-68
2022/11/13 13:49:08;;;;;;;;;;;18.70;71.00;;;;;;4556466;31;19985;-68
2022/11/13 13:51:42;;;;;;;;;;;18.80;71.10;;;;;;4544784;31;20031;-71
2022/11/13 13:54:08;;;;;;;;;;;18.70;71.00;;;;;;4557466;31;20161;-71
2022/11/13 13:56:41;;;;;;;;;;;18.70;71.10;;;;;;4529758;31;20522;-70
2022/11/13 13:59:20;;;;;;;;;;;18.80;71.20;;;;;;4545534;31;20059;-71
2022/11/13 14:01:57;;;;;;;;;;;18.70;71.10;;;;;;4557640;31;20658;-69
2022/11/13 14:04:23;;;;;;;;;;;18.70;71.10;;;;;;4541320;31;20040;-70
2022/11/13 14:06:50;;;;;;;;;;;18.70;71.10;;;;;;4543082;31;20157;-71
2022/11/13 14:09:17;;;;;;;;;;;18.70;71.20;;;;;;4549732;31;20024;-69
2022/11/13 14:11:43;;;;;;;;;;;18.70;71.30;;;;;;4539045;31;20180;-69
2022/11/13 14:14:10;;;;;;;;;;;18.70;71.30;;;;;;4538153;31;20027;-69
2022/11/13 14:16:45;;;;;;;;;;;18.70;71.30;;;;;;4543814;31;20158;-68
2022/11/13 14:19:11;;;;;;;;;;;18.70;71.30;;;;;;4549945;31;19991;-68
2022/11/13 14:21:37;;;;;;;;;;;18.70;71.30;;;;;;4563209;31;20038;-69
2022/11/13 14:24:03;;;;;;;;;;;18.70;71.40;;;;;;4550524;31;20575;-67
2022/11/13 14:26:30;;;;;;;;;;;18.60;71.40;;;;;;4523284;31;20027;-68
2022/11/13 14:28:57;;;;;;;;;;;18.60;71.40;;;;;;4555885;31;20027;-70